sensor_id;sensor_type;location;lat;lon;timestamp;temperature;humidity
5278;DHT22;2662;51.194;6.614;2023-08-06T00:00:09;17.20;99.90
5278;DHT22;2662;51.194;6.614;2023-08-06T00:02:36;17.20;99.90
5278;DHT22;2662;51.194;6.614;2023-08-06T00:05:03;17.10;99.90
5278;DHT22;2662;51.194;6.614;2023-08-06T00:07:30;17.10;99.90
5278;DHT22;2662;51.194;6.614;2023-08-06T00:09:57;17.10;99.90
5278;DHT22;2662;51.194;6.614;2023-08-06T00:12:25;17.00;99.90
5278;DHT22;2662;51.194;6.614;2023-08-06T00:14:52;17.00;99.90
5278;DHT22;2662;51.194;6.614;2023-08-06T00:17:19;17.00;99.90
5278;DHT22;2662;51.194;6.614;2023-08-06T00:19:46;16.90;99.90
5278;DHT22;2662;51.194;6.614;2023-08-06T00:22:13;16.80;99.90
5278;DHT22;2662;51.194;6.614;2023-08-06T00:24:39;16.80;99.90
5278;DHT22;2662;51.194;6.614;2023-08-06T00:27:06;16.80;99.90
5278;DHT22;2662;51.194;6.614;2023-08-06T00:29:35;16.80;99.90
5278;DHT22;2662;51.194;6.614;2023-08-06T00:32:02;16.80;99.90
5278;DHT22;2662;51.194;6.614;2023-08-06T00:34:29;16.80;99.90
5278;DHT22;2662;51.194;6.614;2023-08-06T00:36:55;16.80;99.90
5278;DHT22;2662;51.194;6.614;2023-08-06T00:39:22;16.90;99.90
5278;DHT22;2662;51.194;6.614;2023-08-06T00:41:49;16.90;99.90
5278;DHT22;2662;51.194;6.614;2023-08-06T00:44:16;16.90;99.90
5278;DHT22;2662;51.194;6.614;2023-08-06T00:46:44;17.00;99.90
5278;DHT22;2662;51.194;6.614;2023-08-06T00:49:10;17.00;99.90
5278;DHT22;2662;51.194;6.614;2023-08-06T00:51:38;17.10;99.90
5278;DHT22;2662;51.194;6.614;2023-08-06T00:54:04;17.20;99.90
5278;DHT22;2662;51.194;6.614;2023-08-06T00:56:33;17.20;99.90
5278;DHT22;2662;51.194;6.614;2023-08-06T00:59:01;17.20;99.90
5278;DHT22;2662;51.194;6.614;2023-08-06T01:01:28;17.20;99.90
5278;DHT22;2662;51.194;6.614;2023-08-06T01:03:56;17.20;99.90
5278;DHT22;2662;51.194;6.614;2023-08-06T01:06:34;17.30;99.90
5278;DHT22;2662;51.194;6.614;2023-08-06T01:09:05;17.30;99.90
5278;DHT22;2662;51.194;6.614;2023-08-06T01:11:43;17.30;99.90
5278;DHT22;2662;51.194;6.614;2023-08-06T01:14:15;17.30;99.90
5278;DHT22;2662;51.194;6.614;2023-08-06T01:16:45;17.30;99.90
5278;DHT22;2662;51.194;6.614;2023-08-06T01:19:17;17.30;99.90
5278;DHT22;2662;51.194;6.614;2023-08-06T01:21:45;17.30;99.90
5278;DHT22;2662;51.194;6.614;2023-08-06T01:24:12;17.30;99.90
5278;DHT22;2662;51.194;6.614;2023-08-06T01:26:43;17.30;99.90
5278;DHT22;2662;51.194;6.614;2023-08-06T01:29:17;17.30;99.90
5278;DHT22;2662;51.194;6.614;2023-08-06T01:31:48;17.30;99.90
5278;DHT22;2662;51.194;6.614;2023-08-06T01:34:19;17.30;99.90
5278;DHT22;2662;51.194;6.614;2023-08-06T01:36:48;17.30;99.90
5278;DHT22;2662;51.194;6.614;2023-08-06T01:39:15;17.30;99.90
5278;DHT22;2662;51.194;6.614;2023-08-06T01:41:42;17.20;99.90
5278;DHT22;2662;51.194;6.614;2023-08-06T01:44:09;17.30;99.90
5278;DHT22;2662;51.194;6.614;2023-08-06T01:46:35;17.30;99.90
5278;DHT22;2662;51.194;6.614;2023-08-06T01:49:02;17.40;99.90
5278;DHT22;2662;51.194;6.614;2023-08-06T01:51:29;17.40;99.90
5278;DHT22;2662;51.194;6.614;2023-08-06T01:53:57;17.30;99.90
5278;DHT22;2662;51.194;6.614;2023-08-06T01:56:23;17.30;99.90
5278;DHT22;2662;51.194;6.614;2023-08-06T01:58:50;17.30;99.90
5278;DHT22;2662;51.194;6.614;2023-08-06T02:01:17;17.30;99.90
5278;DHT22;2662;51.194;6.614;2023-08-06T02:03:44;17.30;99.90
5278;DHT22;2662;51.194;6.614;2023-08-06T02:06:10;17.30;99.90
5278;DHT22;2662;51.194;6.614;2023-08-06T02:08:37;17.30;99.90
5278;DHT22;2662;51.194;6.614;2023-08-06T02:11:06;17.40;99.90
5278;DHT22;2662;51.194;6.614;2023-08-06T02:13:33;17.50;99.90
5278;DHT22;2662;51.194;6.614;2023-08-06T02:16:00;17.50;99.90
5278;DHT22;2662;51.194;6.614;2023-08-06T02:18:26;17.50;99.90
5278;DHT22;2662;51.194;6.614;2023-08-06T02:20:57;17.50;99.90
5278;DHT22;2662;51.194;6.614;2023-08-06T02:23:24;17.50;99.90
5278;DHT22;2662;51.194;6.614;2023-08-06T02:25:57;17.50;99.90
5278;DHT22;2662;51.194;6.614;2023-08-06T02:28:25;17.50;99.90
5278;DHT22;2662;51.194;6.614;2023-08-06T02:30:52;17.50;99.90
5278;DHT22;2662;51.194;6.614;2023-08-06T02:33:19;17.50;99.90
5278;DHT22;2662;51.194;6.614;2023-08-06T02:35:46;17.40;99.90
5278;DHT22;2662;51.194;6.614;2023-08-06T02:38:12;17.50;99.90
5278;DHT22;2662;51.194;6.614;2023-08-06T02:40:43;17.40;99.90
5278;DHT22;2662;51.194;6.614;2023-08-06T02:43:10;17.50;99.90
5278;DHT22;2662;51.194;6.614;2023-08-06T02:45:38;17.50;99.90
5278;DHT22;2662;51.194;6.614;2023-08-06T02:48:05;17.60;99.90
5278;DHT22;2662;51.194;6.614;2023-08-06T02:50:37;17.60;99.90
5278;DHT22;2662;51.194;6.614;2023-08-06T02:53:04;17.60;99.90
5278;DHT22;2662;51.194;6.614;2023-08-06T02:55:31;17.70;99.90
5278;DHT22;2662;51.194;6.614;2023-08-06T02:57:59;17.70;99.90
5278;DHT22;2662;51.194;6.614;2023-08-06T03:00:26;17.70;99.90
5278;DHT22;2662;51.194;6.614;2023-08-06T03:02:54;17.60;99.90
5278;DHT22;2662;51.194;6.614;2023-08-06T03:05:20;17.60;99.90
5278;DHT22;2662;51.194;6.614;2023-08-06T03:07:47;17.50;99.90
5278;DHT22;2662;51.194;6.614;2023-08-06T03:10:14;17.40;99.90
5278;DHT22;2662;51.194;6.614;2023-08-06T03:12:41;17.40;99.90
5278;DHT22;2662;51.194;6.614;2023-08-06T03:15:08;17.40;99.90
5278;DHT22;2662;51.194;6.614;2023-08-06T03:17:35;17.40;99.90
5278;DHT22;2662;51.194;6.614;2023-08-06T03:20:04;17.40;99.90
5278;DHT22;2662;51.194;6.614;2023-08-06T03:22:31;17.50;99.90
5278;DHT22;2662;51.194;6.614;2023-08-06T03:24:58;17.40;99.90
5278;DHT22;2662;51.194;6.614;2023-08-06T03:27:25;17.40;99.90
5278;DHT22;2662;51.194;6.614;2023-08-06T03:29:52;17.30;99.90
5278;DHT22;2662;51.194;6.614;2023-08-06T03:32:18;17.40;99.90
5278;DHT22;2662;51.194;6.614;2023-08-06T03:34:45;17.30;99.90
5278;DHT22;2662;51.194;6.614;2023-08-06T03:37:13;17.30;99.90
5278;DHT22;2662;51.194;6.614;2023-08-06T03:39:40;17.30;99.90
5278;DHT22;2662;51.194;6.614;2023-08-06T03:42:07;17.30;99.90
5278;DHT22;2662;51.194;6.614;2023-08-06T03:44:33;17.30;99.90
5278;DHT22;2662;51.194;6.614;2023-08-06T03:47:00;17.30;99.90
5278;DHT22;2662;51.194;6.614;2023-08-06T03:49:27;17.30;99.90
5278;DHT22;2662;51.194;6.614;2023-08-06T03:51:53;17.30;99.90
5278;DHT22;2662;51.194;6.614;2023-08-06T03:54:21;17.40;99.90
5278;DHT22;2662;51.194;6.614;2023-08-06T03:56:48;17.40;99.90
5278;DHT22;2662;51.194;6.614;2023-08-06T03:59:15;17.50;99.90
5278;DHT22;2662;51.194;6.614;2023-08-06T04:01:42;17.50;99.90
5278;DHT22;2662;51.194;6.614;2023-08-06T04:04:08;17.50;99.90
5278;DHT22;2662;51.194;6.614;2023-08-06T04:06:35;17.50;99.90
5278;DHT22;2662;51.194;6.614;2023-08-06T04:09:02;17.60;99.90
5278;DHT22;2662;51.194;6.614;2023-08-06T04:11:30;17.50;99.90
5278;DHT22;2662;51.194;6.614;2023-08-06T04:13:57;17.40;99.90
5278;DHT22;2662;51.194;6.614;2023-08-06T04:16:24;17.30;99.90
5278;DHT22;2662;51.194;6.614;2023-08-06T04:18:51;17.30;99.90
5278;DHT22;2662;51.194;6.614;2023-08-06T04:21:19;17.30;99.90
5278;DHT22;2662;51.194;6.614;2023-08-06T04:23:45;17.30;99.90
5278;DHT22;2662;51.194;6.614;2023-08-06T04:26:12;17.30;99.90
5278;DHT22;2662;51.194;6.614;2023-08-06T04:28:40;17.20;99.90
5278;DHT22;2662;51.194;6.614;2023-08-06T04:31:07;17.20;99.90
5278;DHT22;2662;51.194;6.614;2023-08-06T04:33:34;17.10;99.90
5278;DHT22;2662;51.194;6.614;2023-08-06T04:36:01;17.10;99.90
5278;DHT22;2662;51.194;6.614;2023-08-06T04:38:27;17.20;99.90
5278;DHT22;2662;51.194;6.614;2023-08-06T04:40:54;17.20;99.90
5278;DHT22;2662;51.194;6.614;2023-08-06T04:43:21;17.20;99.90
5278;DHT22;2662;51.194;6.614;2023-08-06T04:45:49;17.20;99.90
5278;DHT22;2662;51.194;6.614;2023-08-06T04:48:16;17.30;99.90
5278;DHT22;2662;51.194;6.614;2023-08-06T04:50:44;17.40;99.90
5278;DHT22;2662;51.194;6.614;2023-08-06T04:53:11;17.30;99.90
5278;DHT22;2662;51.194;6.614;2023-08-06T04:55:38;17.30;99.90
5278;DHT22;2662;51.194;6.614;2023-08-06T04:58:05;17.30;99.90
5278;DHT22;2662;51.194;6.614;2023-08-06T05:00:32;17.40;99.90
5278;DHT22;2662;51.194;6.614;2023-08-06T05:03:01;17.40;99.90
5278;DHT22;2662;51.194;6.614;2023-08-06T05:05:28;17.50;99.90
5278;DHT22;2662;51.194;6.614;2023-08-06T05:07:56;17.60;99.90
5278;DHT22;2662;51.194;6.614;2023-08-06T05:10:24;17.70;99.90
5278;DHT22;2662;51.194;6.614;2023-08-06T05:12:51;17.80;99.90
5278;DHT22;2662;51.194;6.614;2023-08-06T05:15:18;18.00;99.90
5278;DHT22;2662;51.194;6.614;2023-08-06T05:17:45;18.20;99.90
5278;DHT22;2662;51.194;6.614;2023-08-06T05:20:13;18.20;99.90
5278;DHT22;2662;51.194;6.614;2023-08-06T05:22:40;18.20;99.90
5278;DHT22;2662;51.194;6.614;2023-08-06T05:25:07;18.10;99.90
5278;DHT22;2662;51.194;6.614;2023-08-06T05:27:34;18.10;99.90
5278;DHT22;2662;51.194;6.614;2023-08-06T05:30:00;18.10;99.90
5278;DHT22;2662;51.194;6.614;2023-08-06T05:32:27;18.10;99.90
5278;DHT22;2662;51.194;6.614;2023-08-06T05:34:54;18.20;99.90
5278;DHT22;2662;51.194;6.614;2023-08-06T05:37:22;18.30;99.90
5278;DHT22;2662;51.194;6.614;2023-08-06T05:39:49;18.40;99.90
5278;DHT22;2662;51.194;6.614;2023-08-06T05:42:16;18.60;99.90
5278;DHT22;2662;51.194;6.614;2023-08-06T05:44:43;18.80;99.90
5278;DHT22;2662;51.194;6.614;2023-08-06T05:47:09;19.00;99.90
5278;DHT22;2662;51.194;6.614;2023-08-06T05:49:36;18.90;99.90
5278;DHT22;2662;51.194;6.614;2023-08-06T05:52:04;18.80;99.90
5278;DHT22;2662;51.194;6.614;2023-08-06T05:54:35;18.90;99.90
5278;DHT22;2662;51.194;6.614;2023-08-06T05:57:02;19.00;99.90
5278;DHT22;2662;51.194;6.614;2023-08-06T05:59:28;19.00;99.90
5278;DHT22;2662;51.194;6.614;2023-08-06T06:01:55;19.00;99.90
5278;DHT22;2662;51.194;6.614;2023-08-06T06:04:22;19.00;99.90
5278;DHT22;2662;51.194;6.614;2023-08-06T06:06:48;19.00;99.90
5278;DHT22;2662;51.194;6.614;2023-08-06T06:09:15;19.00;99.90
5278;DHT22;2662;51.194;6.614;2023-08-06T06:11:43;19.00;99.90
5278;DHT22;2662;51.194;6.614;2023-08-06T06:14:10;19.00;99.90
5278;DHT22;2662;51.194;6.614;2023-08-06T06:16:37;19.10;99.90
5278;DHT22;2662;51.194;6.614;2023-08-06T06:19:03;19.10;99.90
5278;DHT22;2662;51.194;6.614;2023-08-06T06:21:30;19.30;99.90
5278;DHT22;2662;51.194;6.614;2023-08-06T06:23:57;19.40;99.90
5278;DHT22;2662;51.194;6.614;2023-08-06T06:26:23;19.40;99.90
5278;DHT22;2662;51.194;6.614;2023-08-06T06:28:51;19.50;99.90
5278;DHT22;2662;51.194;6.614;2023-08-06T06:31:18;19.50;99.90
5278;DHT22;2662;51.194;6.614;2023-08-06T06:33:45;19.60;99.90
5278;DHT22;2662;51.194;6.614;2023-08-06T06:36:12;19.60;99.90
5278;DHT22;2662;51.194;6.614;2023-08-06T06:38:38;19.50;99.90
5278;DHT22;2662;51.194;6.614;2023-08-06T06:41:05;19.50;99.90
5278;DHT22;2662;51.194;6.614;2023-08-06T06:43:32;19.50;99.90
5278;DHT22;2662;51.194;6.614;2023-08-06T06:46:00;19.60;99.90
5278;DHT22;2662;51.194;6.614;2023-08-06T06:48:28;19.50;99.90
5278;DHT22;2662;51.194;6.614;2023-08-06T06:50:55;19.50;99.90
5278;DHT22;2662;51.194;6.614;2023-08-06T06:53:22;19.50;99.90
5278;DHT22;2662;51.194;6.614;2023-08-06T06:55:52;19.40;99.90
5278;DHT22;2662;51.194;6.614;2023-08-06T06:58:19;19.30;99.90
5278;DHT22;2662;51.194;6.614;2023-08-06T07:00:46;19.20;99.90
5278;DHT22;2662;51.194;6.614;2023-08-06T07:03:14;19.20;99.90
5278;DHT22;2662;51.194;6.614;2023-08-06T07:05:42;19.30;99.90
5278;DHT22;2662;51.194;6.614;2023-08-06T07:08:09;19.40;99.90
5278;DHT22;2662;51.194;6.614;2023-08-06T07:10:36;19.60;99.90
5278;DHT22;2662;51.194;6.614;2023-08-06T07:13:02;19.80;99.90
5278;DHT22;2662;51.194;6.614;2023-08-06T07:15:29;19.90;99.90
5278;DHT22;2662;51.194;6.614;2023-08-06T07:17:56;20.00;99.90
5278;DHT22;2662;51.194;6.614;2023-08-06T07:20:24;20.20;99.90
5278;DHT22;2662;51.194;6.614;2023-08-06T07:22:51;20.20;99.90
5278;DHT22;2662;51.194;6.614;2023-08-06T07:25:17;20.10;99.90
5278;DHT22;2662;51.194;6.614;2023-08-06T07:27:44;20.00;99.90
5278;DHT22;2662;51.194;6.614;2023-08-06T07:30:11;20.00;99.90
5278;DHT22;2662;51.194;6.614;2023-08-06T07:32:38;20.20;99.90
5278;DHT22;2662;51.194;6.614;2023-08-06T07:35:05;20.40;99.90
5278;DHT22;2662;51.194;6.614;2023-08-06T07:37:34;20.50;99.90
5278;DHT22;2662;51.194;6.614;2023-08-06T07:40:01;20.60;99.90
5278;DHT22;2662;51.194;6.614;2023-08-06T07:42:29;20.80;99.90
5278;DHT22;2662;51.194;6.614;2023-08-06T07:44:57;20.90;99.90
5278;DHT22;2662;51.194;6.614;2023-08-06T07:47:24;21.10;99.90
5278;DHT22;2662;51.194;6.614;2023-08-06T07:49:51;21.30;99.90
5278;DHT22;2662;51.194;6.614;2023-08-06T07:52:18;21.70;99.90
5278;DHT22;2662;51.194;6.614;2023-08-06T07:54:46;22.50;99.90
5278;DHT22;2662;51.194;6.614;2023-08-06T07:57:13;23.00;99.90
5278;DHT22;2662;51.194;6.614;2023-08-06T07:59:40;23.40;99.90
5278;DHT22;2662;51.194;6.614;2023-08-06T08:02:07;23.70;99.90
5278;DHT22;2662;51.194;6.614;2023-08-06T08:04:34;24.10;99.90
5278;DHT22;2662;51.194;6.614;2023-08-06T08:07:00;24.80;99.90
5278;DHT22;2662;51.194;6.614;2023-08-06T08:09:27;25.20;99.90
5278;DHT22;2662;51.194;6.614;2023-08-06T08:11:56;25.00;99.90
5278;DHT22;2662;51.194;6.614;2023-08-06T08:14:23;25.20;99.90
5278;DHT22;2662;51.194;6.614;2023-08-06T08:16:50;25.50;99.90
5278;DHT22;2662;51.194;6.614;2023-08-06T08:19:16;25.50;99.90
5278;DHT22;2662;51.194;6.614;2023-08-06T08:21:43;25.10;99.90
5278;DHT22;2662;51.194;6.614;2023-08-06T08:24:10;24.90;99.90
5278;DHT22;2662;51.194;6.614;2023-08-06T08:26:37;24.70;99.90
5278;DHT22;2662;51.194;6.614;2023-08-06T08:29:05;24.40;99.90
5278;DHT22;2662;51.194;6.614;2023-08-06T08:31:31;24.00;99.90
5278;DHT22;2662;51.194;6.614;2023-08-06T08:34:04;23.70;99.90
5278;DHT22;2662;51.194;6.614;2023-08-06T08:36:31;23.50;99.90
5278;DHT22;2662;51.194;6.614;2023-08-06T08:38:57;23.70;99.90
5278;DHT22;2662;51.194;6.614;2023-08-06T08:41:25;24.50;99.90
5278;DHT22;2662;51.194;6.614;2023-08-06T08:43:54;26.20;99.90
5278;DHT22;2662;51.194;6.614;2023-08-06T08:46:22;27.10;99.90
5278;DHT22;2662;51.194;6.614;2023-08-06T08:48:49;27.00;99.90
5278;DHT22;2662;51.194;6.614;2023-08-06T08:51:17;26.40;99.90
5278;DHT22;2662;51.194;6.614;2023-08-06T08:53:44;27.40;99.90
5278;DHT22;2662;51.194;6.614;2023-08-06T08:56:13;28.60;99.90
5278;DHT22;2662;51.194;6.614;2023-08-06T08:58:40;29.20;99.90
5278;DHT22;2662;51.194;6.614;2023-08-06T09:01:07;28.80;99.90
5278;DHT22;2662;51.194;6.614;2023-08-06T09:03:36;27.90;99.90
5278;DHT22;2662;51.194;6.614;2023-08-06T09:06:04;26.50;99.90
5278;DHT22;2662;51.194;6.614;2023-08-06T09:08:35;25.20;99.90
5278;DHT22;2662;51.194;6.614;2023-08-06T09:11:04;23.80;99.90
5278;DHT22;2662;51.194;6.614;2023-08-06T09:13:31;22.60;99.90
5278;DHT22;2662;51.194;6.614;2023-08-06T09:15:58;22.00;99.90
5278;DHT22;2662;51.194;6.614;2023-08-06T09:18:29;21.50;99.90
5278;DHT22;2662;51.194;6.614;2023-08-06T09:20:58;21.10;99.90
5278;DHT22;2662;51.194;6.614;2023-08-06T09:23:28;20.90;99.90
5278;DHT22;2662;51.194;6.614;2023-08-06T09:25:56;20.90;99.90
5278;DHT22;2662;51.194;6.614;2023-08-06T09:28:23;20.70;99.90
5278;DHT22;2662;51.194;6.614;2023-08-06T09:30:50;20.60;99.90
5278;DHT22;2662;51.194;6.614;2023-08-06T09:33:22;20.50;99.90
5278;DHT22;2662;51.194;6.614;2023-08-06T09:35:49;20.40;99.90
5278;DHT22;2662;51.194;6.614;2023-08-06T09:38:17;20.40;99.90
5278;DHT22;2662;51.194;6.614;2023-08-06T09:40:44;20.50;99.90
5278;DHT22;2662;51.194;6.614;2023-08-06T09:43:12;20.50;99.90
5278;DHT22;2662;51.194;6.614;2023-08-06T09:45:39;20.90;99.90
5278;DHT22;2662;51.194;6.614;2023-08-06T09:48:07;21.10;99.90
5278;DHT22;2662;51.194;6.614;2023-08-06T09:50:35;21.00;99.90
5278;DHT22;2662;51.194;6.614;2023-08-06T09:53:03;21.00;99.90
5278;DHT22;2662;51.194;6.614;2023-08-06T09:55:32;20.60;99.90
5278;DHT22;2662;51.194;6.614;2023-08-06T09:58:00;20.50;99.90
5278;DHT22;2662;51.194;6.614;2023-08-06T10:00:27;20.20;99.90
5278;DHT22;2662;51.194;6.614;2023-08-06T10:02:59;19.70;99.90
5278;DHT22;2662;51.194;6.614;2023-08-06T10:05:26;19.40;99.90
5278;DHT22;2662;51.194;6.614;2023-08-06T10:07:53;19.20;99.90
5278;DHT22;2662;51.194;6.614;2023-08-06T10:10:23;18.90;99.90
5278;DHT22;2662;51.194;6.614;2023-08-06T10:12:52;18.70;99.90
5278;DHT22;2662;51.194;6.614;2023-08-06T10:15:24;18.50;99.90
5278;DHT22;2662;51.194;6.614;2023-08-06T10:17:54;18.30;99.90
5278;DHT22;2662;51.194;6.614;2023-08-06T10:20:22;18.10;99.90
5278;DHT22;2662;51.194;6.614;2023-08-06T10:23:01;17.90;99.90
5278;DHT22;2662;51.194;6.614;2023-08-06T10:25:31;17.70;99.90
5278;DHT22;2662;51.194;6.614;2023-08-06T10:28:00;17.70;99.90
5278;DHT22;2662;51.194;6.614;2023-08-06T10:30:30;17.60;99.90
5278;DHT22;2662;51.194;6.614;2023-08-06T10:32:58;17.50;99.90
5278;DHT22;2662;51.194;6.614;2023-08-06T10:35:44;17.60;99.90
5278;DHT22;2662;51.194;6.614;2023-08-06T10:38:15;17.60;99.90
5278;DHT22;2662;51.194;6.614;2023-08-06T10:40:49;17.50;99.90
5278;DHT22;2662;51.194;6.614;2023-08-06T10:43:27;17.40;99.90
5278;DHT22;2662;51.194;6.614;2023-08-06T10:45:54;17.60;99.90
5278;DHT22;2662;51.194;6.614;2023-08-06T10:48:32;17.70;99.90
5278;DHT22;2662;51.194;6.614;2023-08-06T10:51:00;17.80;99.90
5278;DHT22;2662;51.194;6.614;2023-08-06T10:53:28;17.80;99.90
5278;DHT22;2662;51.194;6.614;2023-08-06T10:55:54;17.80;99.90
5278;DHT22;2662;51.194;6.614;2023-08-06T10:58:21;17.80;99.90
5278;DHT22;2662;51.194;6.614;2023-08-06T11:00:49;17.60;99.90
5278;DHT22;2662;51.194;6.614;2023-08-06T11:03:17;17.40;99.90
5278;DHT22;2662;51.194;6.614;2023-08-06T11:05:48;17.30;99.90
5278;DHT22;2662;51.194;6.614;2023-08-06T11:08:25;17.30;99.90
5278;DHT22;2662;51.194;6.614;2023-08-06T11:10:51;17.10;99.90
5278;DHT22;2662;51.194;6.614;2023-08-06T11:13:18;17.10;99.90
5278;DHT22;2662;51.194;6.614;2023-08-06T11:15:45;17.10;99.90
5278;DHT22;2662;51.194;6.614;2023-08-06T11:18:13;17.10;99.90
5278;DHT22;2662;51.194;6.614;2023-08-06T11:20:40;17.20;99.90
5278;DHT22;2662;51.194;6.614;2023-08-06T11:23:10;17.30;99.90
5278;DHT22;2662;51.194;6.614;2023-08-06T11:25:36;17.40;99.90
5278;DHT22;2662;51.194;6.614;2023-08-06T11:28:03;17.70;99.90
5278;DHT22;2662;51.194;6.614;2023-08-06T11:30:30;17.70;99.90
5278;DHT22;2662;51.194;6.614;2023-08-06T11:32:57;17.80;99.90
5278;DHT22;2662;51.194;6.614;2023-08-06T11:35:25;17.80;99.90
5278;DHT22;2662;51.194;6.614;2023-08-06T11:37:52;18.00;99.90
5278;DHT22;2662;51.194;6.614;2023-08-06T11:40:19;18.00;99.90
5278;DHT22;2662;51.194;6.614;2023-08-06T11:42:46;18.10;99.90
5278;DHT22;2662;51.194;6.614;2023-08-06T11:45:14;18.00;99.90
5278;DHT22;2662;51.194;6.614;2023-08-06T11:47:41;17.90;99.90
5278;DHT22;2662;51.194;6.614;2023-08-06T11:50:08;17.90;99.90
5278;DHT22;2662;51.194;6.614;2023-08-06T11:52:39;18.10;99.90
5278;DHT22;2662;51.194;6.614;2023-08-06T11:55:08;18.30;99.90
5278;DHT22;2662;51.194;6.614;2023-08-06T11:57:37;18.30;99.90
5278;DHT22;2662;51.194;6.614;2023-08-06T12:00:07;18.30;99.90
5278;DHT22;2662;51.194;6.614;2023-08-06T12:02:34;18.50;99.90
5278;DHT22;2662;51.194;6.614;2023-08-06T12:05:04;18.70;99.90
5278;DHT22;2662;51.194;6.614;2023-08-06T12:07:32;18.80;99.90
5278;DHT22;2662;51.194;6.614;2023-08-06T12:10:00;18.70;99.90
5278;DHT22;2662;51.194;6.614;2023-08-06T12:12:27;18.60;99.90
5278;DHT22;2662;51.194;6.614;2023-08-06T12:14:54;18.50;99.90
5278;DHT22;2662;51.194;6.614;2023-08-06T12:17:21;18.50;99.90
5278;DHT22;2662;51.194;6.614;2023-08-06T12:19:48;18.50;99.90
5278;DHT22;2662;51.194;6.614;2023-08-06T12:22:16;18.50;99.90
5278;DHT22;2662;51.194;6.614;2023-08-06T12:24:44;18.50;99.90
5278;DHT22;2662;51.194;6.614;2023-08-06T12:27:13;18.50;99.90
5278;DHT22;2662;51.194;6.614;2023-08-06T12:29:41;18.70;99.90
5278;DHT22;2662;51.194;6.614;2023-08-06T12:32:08;18.60;99.90
5278;DHT22;2662;51.194;6.614;2023-08-06T12:34:35;18.70;99.90
5278;DHT22;2662;51.194;6.614;2023-08-06T12:37:02;18.70;99.90
5278;DHT22;2662;51.194;6.614;2023-08-06T12:39:29;18.60;99.90
5278;DHT22;2662;51.194;6.614;2023-08-06T12:41:56;18.60;99.90
5278;DHT22;2662;51.194;6.614;2023-08-06T12:44:25;18.50;99.90
5278;DHT22;2662;51.194;6.614;2023-08-06T12:46:51;18.50;99.90
5278;DHT22;2662;51.194;6.614;2023-08-06T12:49:18;18.50;99.90
5278;DHT22;2662;51.194;6.614;2023-08-06T12:51:46;18.50;99.90
5278;DHT22;2662;51.194;6.614;2023-08-06T12:54:13;18.70;99.90
5278;DHT22;2662;51.194;6.614;2023-08-06T12:56:40;18.70;99.90
5278;DHT22;2662;51.194;6.614;2023-08-06T12:59:06;18.70;99.90
5278;DHT22;2662;51.194;6.614;2023-08-06T13:01:35;18.80;99.90
5278;DHT22;2662;51.194;6.614;2023-08-06T13:04:01;18.90;99.90
5278;DHT22;2662;51.194;6.614;2023-08-06T13:06:28;18.80;99.90
5278;DHT22;2662;51.194;6.614;2023-08-06T13:08:56;18.70;99.90
5278;DHT22;2662;51.194;6.614;2023-08-06T13:11:23;18.70;99.90
5278;DHT22;2662;51.194;6.614;2023-08-06T13:13:50;18.90;99.90
5278;DHT22;2662;51.194;6.614;2023-08-06T13:16:17;19.30;99.90
5278;DHT22;2662;51.194;6.614;2023-08-06T13:18:45;19.50;99.90
5278;DHT22;2662;51.194;6.614;2023-08-06T13:21:12;19.20;99.90
5278;DHT22;2662;51.194;6.614;2023-08-06T13:23:39;19.10;99.90
5278;DHT22;2662;51.194;6.614;2023-08-06T13:26:06;19.20;99.90
5278;DHT22;2662;51.194;6.614;2023-08-06T13:28:32;19.20;99.90
5278;DHT22;2662;51.194;6.614;2023-08-06T13:30:59;19.00;99.90
5278;DHT22;2662;51.194;6.614;2023-08-06T13:33:26;18.80;99.90
5278;DHT22;2662;51.194;6.614;2023-08-06T13:35:54;18.80;99.90
5278;DHT22;2662;51.194;6.614;2023-08-06T13:38:21;18.80;99.90
5278;DHT22;2662;51.194;6.614;2023-08-06T13:40:48;18.70;99.90
5278;DHT22;2662;51.194;6.614;2023-08-06T13:43:14;18.90;99.90
5278;DHT22;2662;51.194;6.614;2023-08-06T13:45:44;19.00;99.90
5278;DHT22;2662;51.194;6.614;2023-08-06T13:48:11;18.80;99.90
5278;DHT22;2662;51.194;6.614;2023-08-06T13:50:38;18.80;99.90
5278;DHT22;2662;51.194;6.614;2023-08-06T13:53:06;18.80;99.90
5278;DHT22;2662;51.194;6.614;2023-08-06T13:55:33;18.90;99.90
5278;DHT22;2662;51.194;6.614;2023-08-06T13:57:59;18.80;99.90
5278;DHT22;2662;51.194;6.614;2023-08-06T14:00:26;18.90;99.90
5278;DHT22;2662;51.194;6.614;2023-08-06T14:02:53;19.10;99.90
5278;DHT22;2662;51.194;6.614;2023-08-06T14:05:19;19.20;99.90
5278;DHT22;2662;51.194;6.614;2023-08-06T14:07:46;19.20;99.90
5278;DHT22;2662;51.194;6.614;2023-08-06T14:10:14;19.40;99.90
5278;DHT22;2662;51.194;6.614;2023-08-06T14:12:41;19.50;99.90
5278;DHT22;2662;51.194;6.614;2023-08-06T14:15:09;19.70;99.90
5278;DHT22;2662;51.194;6.614;2023-08-06T14:17:36;19.90;99.90
5278;DHT22;2662;51.194;6.614;2023-08-06T14:20:04;20.20;99.90
5278;DHT22;2662;51.194;6.614;2023-08-06T14:22:33;20.00;99.90
5278;DHT22;2662;51.194;6.614;2023-08-06T14:24:59;19.90;99.90
5278;DHT22;2662;51.194;6.614;2023-08-06T14:27:28;19.90;99.90
5278;DHT22;2662;51.194;6.614;2023-08-06T14:29:55;19.80;99.90
5278;DHT22;2662;51.194;6.614;2023-08-06T14:32:21;19.60;99.90
5278;DHT22;2662;51.194;6.614;2023-08-06T14:34:48;19.50;99.90
5278;DHT22;2662;51.194;6.614;2023-08-06T14:37:15;19.50;99.90
5278;DHT22;2662;51.194;6.614;2023-08-06T14:39:42;19.40;99.90
5278;DHT22;2662;51.194;6.614;2023-08-06T14:42:09;19.30;99.90
5278;DHT22;2662;51.194;6.614;2023-08-06T14:44:37;19.20;99.90
5278;DHT22;2662;51.194;6.614;2023-08-06T14:47:03;18.80;99.90
5278;DHT22;2662;51.194;6.614;2023-08-06T14:49:30;18.80;99.90
5278;DHT22;2662;51.194;6.614;2023-08-06T14:51:57;18.90;99.90
5278;DHT22;2662;51.194;6.614;2023-08-06T14:54:27;18.90;99.90
5278;DHT22;2662;51.194;6.614;2023-08-06T14:56:53;18.80;99.90
5278;DHT22;2662;51.194;6.614;2023-08-06T14:59:20;18.80;99.90
5278;DHT22;2662;51.194;6.614;2023-08-06T15:01:48;18.90;99.90
5278;DHT22;2662;51.194;6.614;2023-08-06T15:04:16;19.00;99.90
5278;DHT22;2662;51.194;6.614;2023-08-06T15:06:43;19.00;99.90
5278;DHT22;2662;51.194;6.614;2023-08-06T15:09:11;18.90;99.90
5278;DHT22;2662;51.194;6.614;2023-08-06T15:11:38;18.90;99.90
5278;DHT22;2662;51.194;6.614;2023-08-06T15:14:05;19.00;99.90
5278;DHT22;2662;51.194;6.614;2023-08-06T15:16:32;19.10;99.90
5278;DHT22;2662;51.194;6.614;2023-08-06T15:19:01;19.10;99.90
5278;DHT22;2662;51.194;6.614;2023-08-06T15:21:27;19.30;99.90
5278;DHT22;2662;51.194;6.614;2023-08-06T15:23:54;19.60;99.90
5278;DHT22;2662;51.194;6.614;2023-08-06T15:26:21;19.70;99.90
5278;DHT22;2662;51.194;6.614;2023-08-06T15:28:48;20.00;99.90
5278;DHT22;2662;51.194;6.614;2023-08-06T15:31:14;20.00;99.90
5278;DHT22;2662;51.194;6.614;2023-08-06T15:33:41;19.70;99.90
5278;DHT22;2662;51.194;6.614;2023-08-06T15:36:09;19.80;99.90
5278;DHT22;2662;51.194;6.614;2023-08-06T15:38:36;19.90;99.90
5278;DHT22;2662;51.194;6.614;2023-08-06T15:41:02;20.00;99.90
5278;DHT22;2662;51.194;6.614;2023-08-06T15:43:29;20.00;99.90
5278;DHT22;2662;51.194;6.614;2023-08-06T15:45:56;19.60;99.90
5278;DHT22;2662;51.194;6.614;2023-08-06T15:48:23;19.50;99.90
5278;DHT22;2662;51.194;6.614;2023-08-06T15:50:49;19.40;99.90
5278;DHT22;2662;51.194;6.614;2023-08-06T15:53:17;19.20;99.90
5278;DHT22;2662;51.194;6.614;2023-08-06T15:55:46;19.10;99.90
5278;DHT22;2662;51.194;6.614;2023-08-06T15:58:12;18.90;99.90
5278;DHT22;2662;51.194;6.614;2023-08-06T16:00:40;18.60;99.90
5278;DHT22;2662;51.194;6.614;2023-08-06T16:03:07;18.50;99.90